Time;durP1;ratioP1;P1;durP2;ratioP2;P2;SDS_P1;SDS_P2;PMS_P1;PMS_P2;Temp;Humidity;BMP_temperature;BMP_pressure;BME280_temperature;BME280_humidity;BME280_pressure;Samples;Min_cycle;Max_cycle;Signal;HPM_P1;HPM_P2
2021/01/17 00:00:44;;;;;;;78.40;34.45;;;2.10;99.90;;;;;;4967238;28;20206;-74
2021/01/17 00:03:11;;;;;;;89.97;37.67;;;2.10;99.90;;;;;;4970796;28;20202;-73
2021/01/17 00:05:37;;;;;;;79.83;34.27;;;2.10;99.90;;;;;;4969227;28;20697;-73
2021/01/17 00:08:08;;;;;;;84.03;36.35;;;2.10;99.90;;;;;;4975618;28;20225;-73
2021/01/17 00:10:35;;;;;;;81.78;36.05;;;2.10;99.90;;;;;;4974019;28;20205;-74
2021/01/17 00:13:02;;;;;;;80.20;33.72;;;2.10;99.90;;;;;;4990427;28;20197;-73
2021/01/17 00:15:30;;;;;;;88.60;34.53;;;2.10;99.90;;;;;;4982161;28;20209;-73
2021/01/17 00:17:56;;;;;;;81.80;36.50;;;2.10;99.90;;;;;;4990287;28;20190;-71
2021/01/17 00:20:24;;;;;;;83.40;35.83;;;2.20;99.90;;;;;;4973451;28;20209;-74
2021/01/17 00:22:53;;;;;;;87.90;36.30;;;2.20;99.90;;;;;;4970789;28;20209;-73
2021/01/17 00:25:21;;;;;;;83.50;35.70;;;2.20;99.90;;;;;;4969843;28;20683;-73
2021/01/17 00:27:50;;;;;;;82.17;34.90;;;2.20;99.90;;;;;;4972713;28;20280;-73
2021/01/17 00:30:19;;;;;;;81.90;35.57;;;2.20;99.90;;;;;;4973527;28;20292;-74
2021/01/17 00:32:49;;;;;;;82.97;35.57;;;2.20;99.90;;;;;;4959518;28;20210;-74
2021/01/17 00:35:16;;;;;;;76.10;31.77;;;2.10;99.90;;;;;;4973618;28;20198;-73
2021/01/17 00:37:42;;;;;;;81.75;35.28;;;2.20;99.90;;;;;;4974040;28;20194;-73
2021/01/17 00:40:10;;;;;;;77.63;33.70;;;2.10;99.90;;;;;;4956250;28;20269;-72
2021/01/17 00:42:43;;;;;;;83.95;36.53;;;2.10;99.90;;;;;;4978285;28;20198;-72
2021/01/17 00:45:10;;;;;;;81.80;35.57;;;2.20;99.90;;;;;;4974412;28;20257;-73
2021/01/17 00:47:37;;;;;;;81.78;35.50;;;2.20;99.90;;;;;;4984890;28;20210;-73
2021/01/17 00:50:06;;;;;;;81.57;34.67;;;2.20;99.90;;;;;;4968927;28;20218;-73
2021/01/17 00:52:33;;;;;;;86.87;33.93;;;2.20;99.90;;;;;;4955692;28;20249;-73
2021/01/17 00:54:59;;;;;;;77.65;35.15;;;2.20;99.90;;;;;;4969607;28;20209;-73
2021/01/17 00:57:27;;;;;;;86.60;36.40;;;2.20;99.90;;;;;;4975989;28;20197;-72
2021/01/17 00:59:53;;;;;;;82.43;35.17;;;2.20;99.90;;;;;;4976578;28;20236;-74
2021/01/17 01:02:20;;;;;;;74.85;34.65;;;2.20;99.90;;;;;;4973349;28;20549;-73
2021/01/17 01:04:46;;;;;;;84.10;36.10;;;2.20;99.90;;;;;;4973116;28;20201;-73
2021/01/17 01:07:13;;;;;;;84.53;35.80;;;2.20;99.90;;;;;;4992670;28;20212;-73
2021/01/17 01:09:40;;;;;;;84.65;36.20;;;2.20;99.90;;;;;;4982147;28;20213;-73
2021/01/17 01:12:07;;;;;;;74.93;33.60;;;2.30;99.90;;;;;;4954690;28;20976;-74
2021/01/17 01:14:34;;;;;;;84.15;36.70;;;2.30;99.90;;;;;;4973129;28;20201;-73
2021/01/17 01:17:00;;;;;;;79.82;34.45;;;2.30;99.90;;;;;;4973457;28;20193;-74
2021/01/17 01:19:27;;;;;;;78.80;35.53;;;2.30;99.90;;;;;;4969265;28;20198;-74
2021/01/17 01:21:53;;;;;;;83.97;36.13;;;2.30;99.90;;;;;;4979229;28;20201;-75
2021/01/17 01:24:20;;;;;;;79.15;34.55;;;2.30;99.90;;;;;;4981251;28;20198;-74
2021/01/17 01:26:47;;;;;;;75.65;34.53;;;2.30;99.90;;;;;;4973370;28;20671;-74
2021/01/17 01:29:14;;;;;;;78.35;35.38;;;2.30;99.90;;;;;;4978021;28;20646;-74
2021/01/17 01:31:42;;;;;;;73.43;33.75;;;2.40;99.90;;;;;;4973429;28;20306;-73
2021/01/17 01:34:09;;;;;;;78.43;33.45;;;2.40;99.90;;;;;;4972382;28;20190;-74
2021/01/17 01:36:37;;;;;;;74.13;32.35;;;2.40;99.90;;;;;;4973227;28;20559;-74
2021/01/17 01:39:07;;;;;;;71.18;33.75;;;2.40;99.90;;;;;;4982957;28;20202;-74
2021/01/17 01:41:37;;;;;;;79.25;34.67;;;2.40;99.90;;;;;;4974711;28;20210;-74
2021/01/17 01:44:04;;;;;;;75.65;34.47;;;2.40;99.90;;;;;;4978575;28;20198;-73
2021/01/17 01:46:31;;;;;;;79.35;35.42;;;2.40;99.90;;;;;;4971261;28;20201;-74
2021/01/17 01:49:01;;;;;;;81.00;35.53;;;2.50;99.90;;;;;;4978521;28;21347;-73
2021/01/17 01:51:27;;;;;;;80.93;34.45;;;2.50;99.90;;;;;;4979119;28;20209;-73
2021/01/17 01:53:55;;;;;;;74.72;33.67;;;2.50;99.90;;;;;;4970586;28;20221;-73
2021/01/17 01:56:23;;;;;;;80.55;35.90;;;2.50;99.90;;;;;;4989791;28;20193;-73
2021/01/17 01:58:51;;;;;;;79.97;34.13;;;2.50;99.90;;;;;;4977840;28;20229;-72
2021/01/17 02:01:18;;;;;;;76.50;35.13;;;2.50;99.90;;;;;;4979353;28;20269;-73
2021/01/17 02:03:46;;;;;;;79.15;35.38;;;2.50;99.90;;;;;;4979327;28;20201;-74
2021/01/17 02:06:13;;;;;;;76.47;34.42;;;2.50;99.90;;;;;;4979019;28;20205;-74
2021/01/17 02:09:05;;;;;;;78.32;35.08;;;2.50;99.90;;;;;;4981685;28;20213;-73
2021/01/17 02:11:58;;;;;;;74.07;34.55;;;2.50;99.90;;;;;;4981378;28;20680;-73
2021/01/17 02:14:35;;;;;;;81.05;35.53;;;2.50;99.90;;;;;;4953240;28;20974;-73
2021/01/17 02:17:05;;;;;;;84.07;36.40;;;2.60;99.90;;;;;;4981016;28;20198;-72
2021/01/17 02:19:44;;;;;;;78.82;36.67;;;2.60;99.90;;;;;;4973676;28;20209;-73
2021/01/17 02:22:11;;;;;;;70.70;33.88;;;2.60;99.90;;;;;;4974532;28;20202;-72
2021/01/17 02:24:49;;;;;;;81.63;35.37;;;2.60;99.90;;;;;;4984968;28;20216;-73
2021/01/17 02:27:16;;;;;;;75.03;33.97;;;2.60;99.90;;;;;;4971815;28;20228;-73
2021/01/17 02:29:46;;;;;;;78.40;34.83;;;2.70;99.90;;;;;;4958400;28;20206;-73
2021/01/17 02:32:14;;;;;;;79.40;35.72;;;2.70;99.90;;;;;;4973055;28;20252;-73
2021/01/17 02:34:41;;;;;;;74.95;35.53;;;2.70;99.90;;;;;;4981146;28;20220;-73
2021/01/17 02:37:20;;;;;;;76.55;35.17;;;2.80;99.90;;;;;;4971201;28;20193;-73
2021/01/17 02:39:56;;;;;;;72.60;34.75;;;2.70;99.90;;;;;;4977418;28;20570;-73
2021/01/17 02:42:23;;;;;;;78.40;35.75;;;2.80;99.90;;;;;;4979344;28;20201;-73
2021/01/17 02:44:50;;;;;;;77.63;35.53;;;2.80;99.90;;;;;;4970716;28;20579;-73
2021/01/17 02:47:17;;;;;;;70.90;33.58;;;2.80;99.90;;;;;;4980063;28;20214;-73
2021/01/17 02:49:43;;;;;;;78.30;34.75;;;2.80;99.90;;;;;;4968068;28;20206;-73
2021/01/17 02:52:10;;;;;;;75.07;35.65;;;2.80;99.90;;;;;;4969566;28;20205;-71
2021/01/17 02:54:39;;;;;;;78.53;35.67;;;2.90;99.90;;;;;;4973948;28;20217;-73
2021/01/17 02:57:08;;;;;;;70.93;34.35;;;2.90;99.90;;;;;;4970950;28;20209;-72
2021/01/17 02:59:38;;;;;;;69.75;34.67;;;2.90;99.90;;;;;;4969946;28;20785;-72
2021/01/17 03:02:07;;;;;;;74.88;34.05;;;2.90;99.90;;;;;;4970406;28;20202;-72
2021/01/17 03:04:37;;;;;;;68.43;33.50;;;2.90;99.90;;;;;;4982899;28;20205;-72
2021/01/17 03:07:06;;;;;;;75.03;35.13;;;2.90;99.90;;;;;;4980571;28;20217;-72
2021/01/17 03:09:34;;;;;;;68.60;33.83;;;2.90;99.90;;;;;;4979425;28;20261;-72
2021/01/17 03:12:03;;;;;;;67.85;33.88;;;2.90;99.90;;;;;;4986289;28;20193;-72
2021/01/17 03:14:34;;;;;;;76.78;34.90;;;2.90;99.90;;;;;;4978722;28;20260;-73
2021/01/17 03:17:03;;;;;;;76.68;35.05;;;2.90;99.90;;;;;;4970807;28;20198;-73
2021/01/17 03:19:29;;;;;;;80.60;35.00;;;2.90;99.90;;;;;;4975034;28;20214;-73
2021/01/17 03:21:56;;;;;;;69.78;33.70;;;2.90;99.90;;;;;;4970431;28;20194;-72
2021/01/17 03:24:22;;;;;;;79.80;35.08;;;3.00;99.90;;;;;;4969236;28;20214;-73
2021/01/17 03:26:48;;;;;;;70.53;33.60;;;3.00;99.90;;;;;;4970235;28;20210;-72
2021/01/17 03:29:15;;;;;;;72.82;34.67;;;3.00;99.90;;;;;;4969706;28;20206;-72
2021/01/17 03:31:42;;;;;;;69.13;33.47;;;3.10;99.90;;;;;;4978667;28;20201;-72
2021/01/17 03:34:09;;;;;;;72.15;32.75;;;3.00;99.90;;;;;;4980248;28;20328;-72
2021/01/17 03:36:35;;;;;;;67.25;32.90;;;3.00;99.90;;;;;;4972013;28;20198;-73
2021/01/17 03:39:02;;;;;;;71.70;34.00;;;3.10;99.90;;;;;;4973608;28;20635;-72
2021/01/17 03:41:29;;;;;;;75.25;34.03;;;3.10;99.90;;;;;;4985291;28;20193;-72
2021/01/17 03:43:55;;;;;;;73.28;34.17;;;3.10;99.90;;;;;;4971738;28;20308;-72
2021/01/17 03:46:21;;;;;;;71.75;33.40;;;3.10;99.90;;;;;;4976917;28;20197;-72
2021/01/17 03:48:49;;;;;;;76.05;34.30;;;3.10;99.90;;;;;;4970469;28;20276;-72
2021/01/17 03:51:15;;;;;;;70.68;33.38;;;3.20;99.90;;;;;;4969609;28;20202;-72
2021/01/17 03:53:42;;;;;;;71.85;33.97;;;3.20;99.90;;;;;;4969047;28;20616;-73
2021/01/17 03:56:08;;;;;;;68.57;33.33;;;3.20;99.90;;;;;;4952735;28;20922;-72
2021/01/17 03:58:34;;;;;;;75.32;33.60;;;3.30;99.90;;;;;;4983945;28;20905;-74
2021/01/17 04:01:01;;;;;;;69.80;33.33;;;3.30;99.90;;;;;;4979046;28;20232;-73
2021/01/17 04:03:27;;;;;;;68.05;32.05;;;3.30;99.90;;;;;;4971071;28;20206;-74
2021/01/17 04:05:54;;;;;;;61.03;29.95;;;3.40;99.90;;;;;;4973379;28;20205;-75
2021/01/17 04:08:21;;;;;;;67.18;31.00;;;3.40;99.90;;;;;;4973868;28;20656;-74
2021/01/17 04:10:47;;;;;;;70.85;29.98;;;3.40;99.90;;;;;;4985162;28;20209;-73
2021/01/17 04:13:13;;;;;;;69.80;30.35;;;3.40;99.90;;;;;;4975327;28;20190;-75
2021/01/17 04:15:40;;;;;;;67.28;29.02;;;3.40;99.90;;;;;;4955899;28;20213;-74
2021/01/17 04:18:06;;;;;;;66.30;29.35;;;3.50;99.90;;;;;;4982268;28;20193;-74
2021/01/17 04:20:33;;;;;;;72.10;27.00;;;3.50;99.90;;;;;;4980708;28;20201;-76
2021/01/17 04:23:01;;;;;;;70.25;26.23;;;3.50;99.90;;;;;;4973863;28;20260;-75
2021/01/17 04:25:28;;;;;;;68.05;23.95;;;3.60;99.90;;;;;;4974280;28;20911;-74
2021/01/17 04:27:55;;;;;;;71.13;21.90;;;3.60;99.90;;;;;;4984761;28;20414;-74
2021/01/17 04:30:22;;;;;;;87.47;18.25;;;3.60;99.90;;;;;;4972791;28;20213;-75
2021/01/17 04:32:49;;;;;;;61.75;14.63;;;3.70;99.90;;;;;;4993350;28;20292;-76
2021/01/17 04:35:17;;;;;;;74.65;13.68;;;3.80;99.90;;;;;;4984220;28;20288;-75
2021/01/17 04:37:43;;;;;;;61.72;10.60;;;3.80;99.90;;;;;;4974458;28;20216;-74
2021/01/17 04:40:11;;;;;;;64.03;9.50;;;3.90;99.90;;;;;;4972690;28;20213;-75
2021/01/17 04:42:40;;;;;;;41.55;7.35;;;4.00;99.90;;;;;;4975179;28;20209;-75
2021/01/17 04:45:09;;;;;;;82.15;8.05;;;4.10;99.90;;;;;;4960399;28;20725;-75
2021/01/17 04:47:37;;;;;;;56.58;6.45;;;4.10;99.90;;;;;;4986771;28;20225;-74
2021/01/17 04:50:07;;;;;;;59.33;6.30;;;4.20;99.90;;;;;;4984380;28;20216;-73
2021/01/17 04:52:40;;;;;;;67.10;5.95;;;4.20;99.90;;;;;;4970565;28;20213;-73
2021/01/17 04:55:09;;;;;;;62.33;6.18;;;4.30;99.90;;;;;;4972753;28;20276;-74
2021/01/17 04:57:49;;;;;;;73.90;5.63;;;4.40;99.90;;;;;;4980172;28;20205;-73
2021/01/17 05:00:24;;;;;;;63.20;5.93;;;4.40;99.90;;;;;;4975225;28;20599;-73
2021/01/17 05:03:01;;;;;;;61.10;5.88;;;4.50;99.90;;;;;;4973253;28;20197;-74
2021/01/17 05:05:35;;;;;;;55.97;5.57;;;4.50;99.90;;;;;;4977880;28;20217;-74
2021/01/17 05:08:28;;;;;;;52.22;5.13;;;4.60;99.90;;;;;;4992177;28;20681;-74
2021/01/17 05:11:00;;;;;;;42.50;5.55;;;4.70;99.90;;;;;;4965771;28;20235;-74
2021/01/17 05:13:34;;;;;;;70.93;5.57;;;4.70;99.90;;;;;;4972396;28;20204;-74
2021/01/17 05:16:05;;;;;;;47.50;5.30;;;4.70;99.90;;;;;;4963535;28;20213;-74
2021/01/17 05:18:31;;;;;;;66.90;6.13;;;4.80;99.90;;;;;;4992440;28;20201;-73
2021/01/17 05:21:00;;;;;;;59.22;5.53;;;4.80;99.90;;;;;;4976073;28;20206;-73
2021/01/17 05:23:33;;;;;;;43.88;4.88;;;4.80;99.90;;;;;;4971812;28;20206;-74
2021/01/17 05:26:01;;;;;;;61.78;5.32;;;4.80;99.90;;;;;;4972400;28;20662;-75
2021/01/17 05:28:30;;;;;;;51.50;4.80;;;4.80;99.90;;;;;;4970500;28;20213;-75
2021/01/17 05:30:57;;;;;;;63.95;5.85;;;4.80;99.90;;;;;;4988585;28;20235;-74
2021/01/17 05:33:29;;;;;;;52.90;4.88;;;4.80;99.90;;;;;;4991940;28;20201;-75
2021/01/17 05:35:57;;;;;;;60.47;5.18;;;4.80;99.90;;;;;;4982843;28;20255;-72
2021/01/17 05:38:24;;;;;;;46.75;4.80;;;4.80;99.90;;;;;;4992047;28;20260;-73
2021/01/17 05:40:50;;;;;;;55.35;5.72;;;4.80;99.90;;;;;;4980125;28;20205;-73
2021/01/17 05:43:17;;;;;;;55.40;5.05;;;4.70;99.90;;;;;;4989120;28;20205;-73
2021/01/17 05:45:44;;;;;;;61.22;5.18;;;4.70;99.90;;;;;;4979745;28;20202;-73
2021/01/17 05:48:11;;;;;;;52.88;4.82;;;4.70;99.90;;;;;;4973831;28;20237;-72
2021/01/17 05:50:43;;;;;;;61.55;5.70;;;4.70;99.90;;;;;;4974145;28;20237;-73
2021/01/17 05:53:10;;;;;;;48.15;4.88;;;4.70;99.90;;;;;;4971776;28;20285;-73
2021/01/17 05:55:38;;;;;;;62.70;5.68;;;4.70;99.90;;;;;;4970496;28;20210;-74
2021/01/17 05:58:21;;;;;;;49.83;4.53;;;4.70;99.90;;;;;;4980724;28;20194;-72
2021/01/17 06:00:49;;;;;;;52.92;5.38;;;4.60;99.90;;;;;;4973096;28;20257;-72
2021/01/17 06:03:22;;;;;;;60.17;4.97;;;4.70;99.90;;;;;;4984678;28;20205;-72
2021/01/17 06:05:50;;;;;;;49.45;5.10;;;4.70;99.90;;;;;;4959176;28;20275;-74
2021/01/17 06:08:20;;;;;;;59.58;4.97;;;4.70;99.90;;;;;;4985573;28;20220;-76
2021/01/17 06:10:47;;;;;;;53.45;4.43;;;4.70;99.90;;;;;;4972588;28;20209;-73
2021/01/17 06:13:21;;;;;;;59.80;5.07;;;4.70;99.90;;;;;;4975783;28;20621;-72
2021/01/17 06:15:48;;;;;;;49.95;5.38;;;4.70;99.90;;;;;;4978202;28;20221;-74
2021/01/17 06:18:20;;;;;;;59.00;5.45;;;4.70;99.90;;;;;;4986141;28;20201;-72
2021/01/17 06:20:47;;;;;;;49.80;5.22;;;4.70;99.90;;;;;;4974429;28;20209;-73
2021/01/17 06:23:20;;;;;;;52.25;4.57;;;4.70;99.90;;;;;;4985420;28;20213;-73
2021/01/17 06:26:00;;;;;;;54.05;5.25;;;4.70;99.90;;;;;;4968911;28;20221;-73
2021/01/17 06:28:38;;;;;;;54.90;4.60;;;4.70;99.90;;;;;;4962396;28;20229;-72
2021/01/17 06:31:06;;;;;;;46.00;4.60;;;4.70;99.90;;;;;;4967138;28;20258;-72
2021/01/17 06:33:33;;;;;;;44.75;4.78;;;4.80;99.90;;;;;;4969211;28;20206;-73
2021/01/17 06:36:11;;;;;;;42.40;4.82;;;4.80;99.90;;;;;;4970494;28;20562;-71
2021/01/17 06:38:37;;;;;;;44.65;4.75;;;4.80;99.90;;;;;;4974774;28;20229;-73
2021/01/17 06:41:04;;;;;;;50.22;5.07;;;4.90;99.90;;;;;;4970574;28;20213;-73
2021/01/17 06:43:31;;;;;;;58.20;5.43;;;4.90;99.90;;;;;;4976270;28;20201;-71
2021/01/17 06:45:59;;;;;;;57.35;5.82;;;4.90;99.90;;;;;;4982787;28;20206;-72
2021/01/17 06:48:27;;;;;;;43.67;4.80;;;4.90;99.90;;;;;;4979379;28;20217;-72
2021/01/17 06:50:54;;;;;;;51.05;5.13;;;4.90;99.90;;;;;;4971342;28;20232;-72
2021/01/17 06:53:24;;;;;;;59.55;4.95;;;5.00;99.90;;;;;;4974338;28;20214;-72
2021/01/17 06:56:08;;;;;;;48.20;4.50;;;5.00;99.90;;;;;;4977736;28;20565;-72
2021/01/17 06:58:38;;;;;;;49.15;4.85;;;5.00;99.90;;;;;;4973595;28;20256;-74
2021/01/17 07:01:05;;;;;;;48.83;4.78;;;5.00;99.90;;;;;;4967779;28;20934;-73
2021/01/17 07:03:41;;;;;;;39.65;5.40;;;5.10;99.90;;;;;;4967829;28;20745;-73
2021/01/17 07:06:26;;;;;;;51.67;5.40;;;5.10;99.90;;;;;;4953800;28;20210;-73
2021/01/17 07:08:58;;;;;;;47.80;4.30;;;5.10;99.90;;;;;;4970067;28;20210;-76
2021/01/17 07:12:01;;;;;;;53.38;5.25;;;5.20;99.90;;;;;;4970821;28;20197;-73
2021/01/17 07:14:28;;;;;;;41.63;4.80;;;5.20;99.90;;;;;;4970079;28;20197;-74
2021/01/17 07:16:57;;;;;;;44.47;5.00;;;5.20;99.90;;;;;;4970980;28;20257;-72
2021/01/17 07:19:32;;;;;;;59.13;5.68;;;5.30;99.90;;;;;;4973453;28;20256;-74
2021/01/17 07:22:04;;;;;;;41.92;4.57;;;5.30;99.90;;;;;;4967840;28;20206;-74
2021/01/17 07:24:31;;;;;;;54.80;5.65;;;5.30;99.90;;;;;;4972287;28;20576;-73
2021/01/17 07:27:15;;;;;;;58.38;5.28;;;5.40;99.90;;;;;;4976719;28;20206;-74
2021/01/17 07:29:43;;;;;;;49.97;5.25;;;5.40;99.90;;;;;;4960067;28;20213;-73
2021/01/17 07:32:35;;;;;;;50.38;5.32;;;5.50;99.90;;;;;;4949527;28;20706;-73
2021/01/17 07:35:11;;;;;;;48.58;4.85;;;5.50;99.90;;;;;;4966110;28;20213;-74
2021/01/17 07:37:43;;;;;;;40.55;5.00;;;5.50;99.90;;;;;;4970394;28;20573;-74
2021/01/17 07:40:10;;;;;;;45.25;5.90;;;5.50;99.90;;;;;;4952446;28;20734;-74
2021/01/17 07:42:37;;;;;;;45.80;5.07;;;5.50;99.90;;;;;;4969774;28;20202;-74
2021/01/17 07:45:16;;;;;;;64.88;5.88;;;5.60;99.90;;;;;;4953368;28;20219;-74
2021/01/17 07:47:44;;;;;;;55.13;5.22;;;5.60;99.90;;;;;;4971665;28;20737;-74
2021/01/17 07:50:13;;;;;;;57.38;5.75;;;5.60;99.90;;;;;;4969709;28;20647;-74
2021/01/17 07:52:43;;;;;;;45.60;5.72;;;5.60;99.90;;;;;;4971184;28;20574;-72
2021/01/17 07:55:13;;;;;;;50.47;5.38;;;5.60;99.90;;;;;;4967289;28;20257;-74
2021/01/17 07:57:44;;;;;;;47.85;5.32;;;5.60;99.90;;;;;;4970154;28;20205;-73
2021/01/17 08:00:13;;;;;;;46.60;5.95;;;5.60;99.90;;;;;;4977222;28;20243;-74
2021/01/17 08:02:40;;;;;;;55.05;5.78;;;5.70;99.90;;;;;;4976110;28;21011;-73
2021/01/17 08:05:07;;;;;;;55.35;5.28;;;5.70;99.90;;;;;;4967115;28;20213;-74
2021/01/17 08:07:34;;;;;;;51.90;5.60;;;5.70;99.90;;;;;;4970337;28;20218;-73
2021/01/17 08:10:01;;;;;;;56.50;5.22;;;5.70;99.90;;;;;;4951751;28;20210;-74
2021/01/17 08:12:42;;;;;;;48.75;5.30;;;5.80;99.90;;;;;;4971388;28;20221;-73
2021/01/17 08:15:29;;;;;;;51.38;5.15;;;5.80;99.90;;;;;;4969033;28;21961;-73
2021/01/17 08:17:56;;;;;;;32.15;4.20;;;5.80;99.90;;;;;;4969549;28;20205;-72
2021/01/17 08:20:31;;;;;;;38.50;4.88;;;5.80;99.90;;;;;;4959681;28;20217;-72
2021/01/17 08:23:11;;;;;;;44.05;4.13;;;5.80;99.90;;;;;;4988864;28;20201;-73
2021/01/17 08:25:49;;;;;;;45.92;4.57;;;5.80;99.90;;;;;;4970337;28;20205;-72
2021/01/17 08:28:29;;;;;;;45.75;4.95;;;5.80;99.90;;;;;;4975606;28;20248;-73
2021/01/17 08:30:56;;;;;;;42.70;4.78;;;5.90;99.90;;;;;;4979205;28;20263;-73
2021/01/17 08:33:26;;;;;;;45.95;7.22;;;5.90;99.90;;;;;;4969898;28;20202;-74
2021/01/17 08:35:53;;;;;;;33.60;5.13;;;5.90;99.90;;;;;;4953014;28;20209;-78
2021/01/17 08:38:22;;;;;;;34.78;4.20;;;5.90;99.90;;;;;;4970606;28;20206;-76
2021/01/17 08:40:51;;;;;;;34.40;4.40;;;6.00;99.90;;;;;;4979492;28;20232;-73
2021/01/17 08:43:19;;;;;;;33.90;4.45;;;6.00;99.90;;;;;;4972097;28;20594;-73
2021/01/17 08:45:46;;;;;;;30.95;4.32;;;6.00;99.90;;;;;;4968237;28;20565;-74
2021/01/17 08:48:30;;;;;;;34.75;4.35;;;6.00;99.90;;;;;;4971375;28;20222;-73
2021/01/17 08:51:12;;;;;;;36.67;3.60;;;6.00;99.90;;;;;;4972921;28;20693;-74
2021/01/17 08:53:39;;;;;;;39.95;4.20;;;6.00;99.90;;;;;;4966702;28;20214;-75
2021/01/17 08:56:23;;;;;;;27.58;3.80;;;6.00;99.90;;;;;;4972840;28;20717;-74
2021/01/17 08:58:51;;;;;;;34.35;4.25;;;6.10;99.90;;;;;;4972739;28;20209;-73
2021/01/17 09:01:19;;;;;;;30.20;3.65;;;6.10;99.90;;;;;;4965044;28;20237;-76
2021/01/17 09:04:06;;;;;;;35.00;4.40;;;6.10;99.90;;;;;;4955757;28;20202;-74
2021/01/17 09:06:41;;;;;;;37.25;4.82;;;6.10;99.90;;;;;;4985408;28;20205;-75
2021/01/17 09:09:15;;;;;;;29.42;4.10;;;6.10;99.90;;;;;;4964652;28;20242;-76
2021/01/17 09:11:42;;;;;;;33.63;4.82;;;6.20;99.90;;;;;;4976200;28;20386;-78
2021/01/17 09:14:19;;;;;;;39.63;4.82;;;6.20;99.90;;;;;;4983329;28;20197;-76
2021/01/17 09:16:52;;;;;;;33.15;4.13;;;6.20;99.90;;;;;;4968416;28;20202;-76
2021/01/17 09:19:19;;;;;;;44.97;4.57;;;6.20;99.90;;;;;;4982570;28;20216;-77
2021/01/17 09:21:49;;;;;;;30.40;4.03;;;6.20;99.90;;;;;;4980841;28;20210;-78
2021/01/17 09:24:18;;;;;;;32.40;4.53;;;6.30;99.90;;;;;;4973016;28;20221;-77
2021/01/17 09:26:46;;;;;;;40.28;4.22;;;6.30;99.90;;;;;;4981898;28;20212;-76
2021/01/17 09:29:30;;;;;;;48.95;5.22;;;6.40;99.90;;;;;;4980526;28;20690;-75
2021/01/17 09:31:59;;;;;;;34.72;3.88;;;6.50;99.90;;;;;;4978687;28;20216;-77
2021/01/17 09:34:29;;;;;;;24.85;4.35;;;6.50;99.90;;;;;;4976434;28;20202;-75
2021/01/17 09:36:56;;;;;;;28.33;3.80;;;6.60;99.90;;;;;;4988354;28;20201;-76
2021/01/17 09:39:29;;;;;;;39.95;4.13;;;6.60;99.90;;;;;;4974023;28;20574;-76
2021/01/17 09:41:56;;;;;;;29.30;3.95;;;6.60;99.90;;;;;;4973387;28;20210;-75
2021/01/17 09:44:22;;;;;;;28.27;3.10;;;6.70;99.90;;;;;;4955768;28;20202;-76
2021/01/17 09:46:49;;;;;;;25.20;3.03;;;6.70;99.90;;;;;;4981388;28;20686;-76
2021/01/17 09:49:15;;;;;;;24.48;2.75;;;6.70;99.90;;;;;;4988327;28;20213;-76
2021/01/17 09:51:48;;;;;;;23.75;2.70;;;6.70;99.90;;;;;;4976350;28;20190;-74
2021/01/17 09:54:15;;;;;;;29.55;3.45;;;6.70;99.90;;;;;;4972745;28;20202;-75
2021/01/17 09:56:43;;;;;;;23.90;2.83;;;6.70;99.90;;;;;;4975758;28;20559;-75
2021/01/17 09:59:14;;;;;;;19.08;3.08;;;6.70;99.90;;;;;;4972307;28;20589;-74
2021/01/17 10:01:42;;;;;;;26.35;2.92;;;6.70;99.90;;;;;;4972396;28;20209;-75
2021/01/17 10:04:19;;;;;;;27.60;3.13;;;6.70;99.90;;;;;;4983426;28;20217;-75
2021/01/17 10:06:47;;;;;;;26.80;2.95;;;6.70;99.90;;;;;;4991805;28;20205;-75
2021/01/17 10:09:18;;;;;;;16.00;2.83;;;6.70;99.90;;;;;;4982825;28;20220;-75
2021/01/17 10:11:45;;;;;;;25.65;2.90;;;6.80;99.90;;;;;;4972485;28;20213;-74
2021/01/17 10:14:12;;;;;;;21.58;3.25;;;6.80;99.90;;;;;;4972582;28;20614;-74
2021/01/17 10:16:39;;;;;;;26.15;3.30;;;6.80;99.90;;;;;;4976838;28;20216;-75
2021/01/17 10:19:07;;;;;;;21.25;2.88;;;6.80;99.90;;;;;;4972618;28;20622;-74
2021/01/17 10:21:38;;;;;;;20.23;2.88;;;6.90;99.90;;;;;;4978832;28;21046;-74
2021/01/17 10:24:07;;;;;;;24.00;3.08;;;6.90;99.90;;;;;;4967761;28;20558;-74
2021/01/17 10:26:35;;;;;;;22.42;3.30;;;6.90;99.90;;;;;;4972142;28;20213;-75
2021/01/17 10:29:06;;;;;;;31.17;2.95;;;6.90;99.90;;;;;;4972110;28;20320;-76
2021/01/17 10:31:36;;;;;;;19.83;3.17;;;6.90;99.90;;;;;;4980424;28;20661;-76
2021/01/17 10:34:04;;;;;;;25.92;3.42;;;7.00;99.90;;;;;;4980555;28;20210;-77
2021/01/17 10:36:30;;;;;;;36.70;3.38;;;7.00;99.90;;;;;;4988074;28;20617;-76
2021/01/17 10:38:57;;;;;;;26.65;3.80;;;7.00;99.90;;;;;;4981043;28;20212;-77
2021/01/17 10:41:26;;;;;;;29.05;3.47;;;7.10;99.90;;;;;;4972211;28;20598;-75
2021/01/17 10:44:04;;;;;;;24.80;3.22;;;7.10;99.90;;;;;;4973891;28;20205;-74
2021/01/17 10:46:36;;;;;;;26.98;2.95;;;7.10;99.90;;;;;;4976087;28;20297;-75
2021/01/17 10:49:07;;;;;;;24.50;3.55;;;7.20;99.90;;;;;;4981057;28;20221;-78
2021/01/17 10:51:40;;;;;;;24.42;3.47;;;7.20;99.90;;;;;;4970592;28;20197;-75
2021/01/17 10:54:07;;;;;;;28.88;3.70;;;7.20;99.90;;;;;;4970119;28;20198;-74
2021/01/17 10:56:36;;;;;;;27.63;3.35;;;7.30;99.90;;;;;;4971132;28;20217;-75
2021/01/17 10:59:10;;;;;;;27.63;3.45;;;7.30;99.90;;;;;;4985916;28;20193;-75
2021/01/17 11:01:37;;;;;;;23.63;3.45;;;7.40;99.90;;;;;;4954329;28;20206;-75
2021/01/17 11:04:04;;;;;;;29.58;3.90;;;7.40;99.90;;;;;;4953657;28;20677;-76
2021/01/17 11:06:30;;;;;;;28.02;3.20;;;7.50;99.90;;;;;;4978992;28;20202;-77
2021/01/17 11:08:59;;;;;;;28.17;3.50;;;7.60;99.90;;;;;;4984794;28;20217;-76
2021/01/17 11:11:27;;;;;;;35.38;4.05;;;7.60;99.90;;;;;;4967206;28;20914;-78
2021/01/17 11:13:59;;;;;;;28.70;3.72;;;7.70;99.90;;;;;;4975103;28;20573;-76
2021/01/17 11:16:34;;;;;;;35.72;4.05;;;7.80;99.90;;;;;;4982159;28;20197;-75
2021/01/17 11:19:01;;;;;;;39.72;4.07;;;7.80;99.90;;;;;;4978126;28;20193;-75
2021/01/17 11:21:30;;;;;;;24.83;3.05;;;7.80;99.90;;;;;;4960300;28;20201;-75
2021/01/17 11:23:56;;;;;;;26.70;3.30;;;7.80;99.90;;;;;;4961594;28;20288;-75
2021/01/17 11:26:24;;;;;;;20.10;2.78;;;7.90;99.90;;;;;;4977324;28;20272;-75
2021/01/17 11:28:52;;;;;;;26.20;3.63;;;7.90;99.90;;;;;;4984986;28;20705;-75
2021/01/17 11:31:19;;;;;;;31.60;3.83;;;7.90;99.90;;;;;;4961626;28;20259;-75
2021/01/17 11:33:47;;;;;;;36.97;4.03;;;7.90;99.90;;;;;;4955142;28;20206;-73
2021/01/17 11:36:17;;;;;;;21.05;3.40;;;7.90;99.90;;;;;;4975507;28;20189;-76
2021/01/17 11:38:47;;;;;;;28.13;3.35;;;7.90;99.90;;;;;;4971985;28;20675;-74
2021/01/17 11:41:14;;;;;;;37.50;4.63;;;7.90;99.90;;;;;;4971302;28;20220;-75
2021/01/17 11:43:40;;;;;;;26.55;3.90;;;7.90;99.90;;;;;;4970824;28;20260;-74
2021/01/17 11:46:08;;;;;;;23.73;3.60;;;7.90;99.90;;;;;;4953291;28;20209;-73
2021/01/17 11:48:36;;;;;;;40.45;4.28;;;7.90;99.90;;;;;;4972269;28;20675;-75
2021/01/17 11:51:03;;;;;;;25.65;3.60;;;7.90;99.90;;;;;;4959975;28;20667;-75
2021/01/17 11:53:32;;;;;;;37.47;3.83;;;7.90;99.90;;;;;;4971108;28;20741;-74
2021/01/17 11:55:58;;;;;;;30.80;3.85;;;8.00;99.90;;;;;;4971166;28;20198;-76
2021/01/17 11:58:26;;;;;;;27.17;3.30;;;8.00;99.90;;;;;;4971051;28;20570;-75
2021/01/17 12:00:58;;;;;;;29.98;3.28;;;8.00;99.90;;;;;;4969325;28;20233;-75
2021/01/17 12:03:30;;;;;;;34.30;3.88;;;8.10;99.90;;;;;;4971193;28;20208;-76
2021/01/17 12:06:04;;;;;;;30.63;3.88;;;8.10;99.90;;;;;;4985920;28;20253;-76
2021/01/17 12:09:06;;;;;;;31.50;4.18;;;8.10;99.90;;;;;;4974597;28;20216;-75
2021/01/17 12:11:38;;;;;;;27.17;3.58;;;8.20;99.90;;;;;;4974467;28;20204;-78
2021/01/17 12:14:06;;;;;;;31.23;3.70;;;8.20;99.90;;;;;;4971059;28;20210;-76
2021/01/17 12:16:35;;;;;;;33.10;3.63;;;8.20;99.90;;;;;;4984315;28;20201;-75
2021/01/17 12:19:02;;;;;;;29.75;3.80;;;8.20;99.90;;;;;;4956655;28;20670;-74
2021/01/17 12:21:31;;;;;;;32.53;3.80;;;8.20;99.90;;;;;;4970928;28;20678;-76
2021/01/17 12:23:58;;;;;;;36.47;4.80;;;8.30;99.90;;;;;;4983113;28;20790;-73
2021/01/17 12:26:26;;;;;;;28.50;3.55;;;8.30;99.90;;;;;;4976579;28;20194;-74
2021/01/17 12:28:52;;;;;;;32.42;3.92;;;8.30;99.90;;;;;;4983300;28;20678;-75
2021/01/17 12:31:21;;;;;;;33.00;3.90;;;8.40;99.90;;;;;;4991549;28;20200;-75
2021/01/17 12:33:48;;;;;;;38.03;4.07;;;8.50;99.90;;;;;;4964197;28;20218;-75
2021/01/17 12:36:17;;;;;;;39.30;4.05;;;8.50;99.90;;;;;;4974429;28;20658;-75
2021/01/17 12:38:44;;;;;;;37.63;4.53;;;8.60;99.90;;;;;;4979462;28;20716;-74
2021/01/17 12:41:12;;;;;;;33.55;4.45;;;8.60;99.90;;;;;;4970935;28;20248;-74
2021/01/17 12:43:40;;;;;;;29.63;3.75;;;8.70;99.90;;;;;;4993725;28;20193;-75
2021/01/17 12:46:08;;;;;;;31.27;3.60;;;8.70;99.90;;;;;;4984350;28;20206;-76
2021/01/17 12:48:34;;;;;;;34.55;4.22;;;8.80;99.90;;;;;;4956632;28;20225;-75
2021/01/17 12:51:01;;;;;;;29.63;4.30;;;8.70;99.90;;;;;;4973989;28;20665;-75
2021/01/17 12:53:28;;;;;;;29.17;4.63;;;8.80;99.90;;;;;;4976822;28;20205;-74
2021/01/17 12:55:55;;;;;;;42.17;4.90;;;8.70;99.90;;;;;;4975473;28;20220;-74